createdAt,value
2019-04-22T00:01:50.416Z,71.80
2019-04-22T00:04:32.314Z,72.30
2019-04-22T00:07:20.262Z,72.40
2019-04-22T00:09:51.749Z,72.40
2019-04-22T00:12:22.258Z,72.60
2019-04-22T00:14:48.512Z,73.00
2019-04-22T00:17:35.307Z,72.90
2019-04-22T00:19:57.722Z,72.90
2019-04-22T00:24:59.831Z,73.20
2019-04-22T00:27:34.147Z,73.60
2019-04-22T00:32:30.469Z,74.40
2019-04-22T00:35:06.060Z,74.30
2019-04-22T00:37:37.893Z,73.90
2019-04-22T00:40:12.941Z,74.20
2019-04-22T00:42:41.328Z,75.00
2019-04-22T00:45:11.807Z,74.80
2019-04-22T00:47:37.734Z,74.80
2019-04-22T00:52:39.897Z,75.30
2019-04-22T00:57:51.880Z,75.80
2019-04-22T01:00:23.019Z,75.20
2019-04-22T01:02:49.489Z,76.20
2019-04-22T01:05:21.363Z,76.10
2019-04-22T01:07:51.518Z,76.00
2019-04-22T01:10:28.185Z,76.20
2019-04-22T01:12:54.663Z,76.60
2019-04-22T01:15:28.901Z,76.80
2019-04-22T01:17:57.840Z,77.10
2019-04-22T01:23:00.543Z,77.40
2019-04-22T01:25:26.308Z,78.00
2019-04-22T01:27:54.776Z,77.80
2019-04-22T01:30:21.130Z,77.50
2019-04-22T01:32:44.906Z,77.60
2019-04-22T01:35:27.511Z,78.00
2019-04-22T01:38:03.199Z,77.80
2019-04-22T01:40:38.749Z,78.00
2019-04-22T01:43:19.921Z,78.60
2019-04-22T01:45:41.428Z,77.70
2019-04-22T01:48:10.361Z,78.60
2019-04-22T01:50:43.192Z,78.40
2019-04-22T01:53:24.680Z,78.40
2019-04-22T01:55:46.931Z,78.70
2019-04-22T01:58:10.885Z,79.40
2019-04-22T02:00:53.682Z,79.40
2019-04-22T02:03:26.005Z,80.00
2019-04-22T02:05:52.198Z,80.00
2019-04-22T02:08:31.459Z,80.30
2019-04-22T02:10:54.965Z,80.40
2019-04-22T02:13:31.919Z,80.70
2019-04-22T02:15:58.277Z,80.70
2019-04-22T02:18:35.798Z,80.90
2019-04-22T02:20:56.545Z,81.30
2019-04-22T02:28:47.991Z,81.30
2019-04-22T02:44:01.736Z,82.00
2019-04-22T02:46:47.236Z,82.10
2019-04-22T02:49:06.069Z,82.10
2019-04-22T02:59:08.464Z,81.40
2019-04-22T03:01:29.842Z,81.70
2019-04-22T03:04:06.971Z,82.00
2019-04-22T03:06:30.474Z,82.30
2019-04-22T03:09:07.548Z,82.50
2019-04-22T03:11:55.366Z,82.80
2019-04-22T03:14:00.692Z,83.10
2019-04-22T03:16:43.102Z,83.20
2019-04-22T03:21:36.691Z,82.90
2019-04-22T03:24:17.578Z,83.40
2019-04-22T03:28:54.855Z,83.90
2019-04-22T03:32:33.448Z,83.70
2019-04-22T03:45:02.771Z,83.90
2019-04-22T03:50:00.909Z,84.10
2019-04-22T03:52:16.264Z,84.30
2019-04-22T03:55:05.075Z,84.30
2019-04-22T03:59:48.052Z,84.50
2019-04-22T04:02:29.270Z,84.50
2019-04-22T04:04:53.863Z,84.60
2019-04-22T04:07:38.313Z,85.00
2019-04-22T04:12:25.856Z,84.10
2019-04-22T04:17:31.166Z,83.80
2019-04-22T04:30:15.954Z,84.20
2019-04-22T04:42:43.067Z,85.30
2019-04-22T04:45:23.996Z,85.00
2019-04-22T04:50:11.927Z,84.10
2019-04-22T05:07:48.307Z,82.80
2019-04-22T05:15:27.654Z,82.80
2019-04-22T05:17:55.521Z,82.50
2019-04-22T05:20:32.036Z,82.30
2019-04-22T05:22:44.265Z,82.10
2019-04-22T05:25:25.235Z,82.40
2019-04-22T05:32:49.953Z,81.00
2019-04-22T05:35:26.648Z,80.60
2019-04-22T05:37:56.582Z,79.80
2019-04-22T05:40:26.194Z,79.20
2019-04-22T05:42:56.078Z,79.50
2019-04-22T05:45:25.165Z,79.10
2019-04-22T05:47:57.674Z,78.00
2019-04-22T05:50:24.069Z,77.40
2019-04-22T05:53:01.751Z,77.40
2019-04-22T05:55:36.047Z,76.50
2019-04-22T05:58:02.768Z,76.30
2019-04-22T06:01:07.176Z,75.90
2019-04-22T06:03:21.085Z,75.30
2019-04-22T06:05:41.632Z,75.10
2019-04-22T06:08:10.403Z,74.40
2019-04-22T06:10:45.661Z,72.90
2019-04-22T06:13:09.994Z,63.60
2019-04-22T06:15:38.926Z,52.90
2019-04-22T06:18:22.799Z,43.00
2019-04-22T06:21:03.727Z,36.00
2019-04-22T06:23:26.197Z,31.30
2019-04-22T06:26:04.850Z,29.30
2019-04-22T06:33:34.492Z,25.30
2019-04-22T06:36:02.019Z,25.50
2019-04-22T06:41:08.806Z,23.60
2019-04-22T06:43:35.231Z,23.60
2019-04-22T06:46:09.276Z,23.70
2019-04-22T06:48:36.112Z,23.70
2019-04-22T06:51:06.750Z,23.80
2019-04-22T06:56:14.307Z,22.90
2019-04-22T06:58:43.670Z,23.00
2019-04-22T07:03:53.947Z,22.60
2019-04-22T07:06:33.446Z,22.40
2019-04-22T07:09:18.598Z,22.90
2019-04-22T07:11:23.740Z,22.70
2019-04-22T07:14:02.957Z,22.30
2019-04-22T07:16:32.114Z,22.00
2019-04-22T07:19:01.903Z,22.20
2019-04-22T07:21:35.231Z,22.00
2019-04-22T07:24:21.146Z,22.20
2019-04-22T07:26:29.125Z,22.30
2019-04-22T07:29:04.083Z,22.50
2019-04-22T07:31:36.877Z,22.70
2019-04-22T07:34:16.403Z,23.10
2019-04-22T07:39:10.503Z,22.70
2019-04-22T07:41:44.599Z,22.40
2019-04-22T08:40:02.885Z,23.30
2019-04-22T08:42:39.078Z,22.60
2019-04-22T08:47:31.173Z,22.20
2019-04-22T08:50:04.873Z,22.20
2019-04-22T08:55:08.150Z,22.40
2019-04-22T09:00:05.380Z,23.30
2019-04-22T09:02:44.668Z,22.90
2019-04-22T09:05:11.912Z,23.10
2019-04-22T09:07:36.726Z,23.20
2019-04-22T09:10:15.647Z,23.30
2019-04-22T09:12:53.023Z,23.10
2019-04-22T09:15:15.902Z,22.60
2019-04-22T09:17:39.899Z,23.40
2019-04-22T09:20:13.225Z,23.50
2019-04-22T09:22:41.071Z,22.70
2019-04-22T09:25:13.499Z,22.40
2019-04-22T09:27:48.002Z,22.00
2019-04-22T09:30:20.479Z,22.00
2019-04-22T09:35:15.889Z,22.00
2019-04-22T09:38:23.386Z,22.40
2019-04-22T09:42:50.445Z,22.00
2019-04-22T09:45:21.627Z,21.90
2019-04-22T09:48:03.093Z,22.60
2019-04-22T09:50:29.387Z,22.70
2019-04-22T09:52:54.650Z,22.50
2019-04-22T09:55:27.091Z,22.40
2019-04-22T09:58:01.033Z,22.30
2019-04-22T10:00:36.420Z,22.70
2019-04-22T10:03:00.511Z,22.80
2019-04-22T10:05:32.789Z,22.70
2019-04-22T10:08:14.835Z,22.10
2019-04-22T10:10:41.777Z,22.20
2019-04-22T10:13:14.103Z,22.30
2019-04-22T10:15:39.699Z,22.50
2019-04-22T10:18:09.771Z,22.90
2019-04-22T10:20:38.641Z,22.80
2019-04-22T10:23:17.038Z,23.20
2019-04-22T10:25:48.195Z,22.70
2019-04-22T10:28:15.334Z,23.30
2019-04-22T10:30:47.336Z,23.30
2019-04-22T10:33:10.120Z,23.80
2019-04-22T10:35:25.234Z,24.20
2019-04-22T10:37:54.319Z,24.20
2019-04-22T10:40:29.956Z,24.20
2019-04-22T10:42:59.360Z,24.60
2019-04-22T10:45:30.225Z,24.80
2019-04-22T10:48:01.677Z,24.20
2019-04-22T10:50:40.979Z,24.60
2019-04-22T10:53:11.286Z,25.40
2019-04-22T10:55:43.470Z,25.10
2019-04-22T10:58:12.857Z,24.70
2019-04-22T11:00:43.315Z,23.80
2019-04-22T11:03:14.046Z,24.20
2019-04-22T11:05:44.272Z,25.10
2019-04-22T11:08:20.424Z,25.10
2019-04-22T11:11:00.653Z,24.90
2019-04-22T11:13:16.006Z,25.20
2019-04-22T11:15:46.636Z,25.40
2019-04-22T11:18:17.811Z,25.40
2019-04-22T11:20:47.520Z,25.20
2019-04-22T11:23:16.843Z,25.80
2019-04-22T11:25:47.592Z,25.20
2019-04-22T11:28:17.963Z,25.70
2019-04-22T11:30:48.225Z,25.50
2019-04-22T11:33:18.379Z,25.50
2019-04-22T11:35:48.071Z,25.80
2019-04-22T11:38:17.421Z,25.60
2019-04-22T11:40:51.642Z,25.70
2019-04-22T11:43:17.725Z,25.50
2019-04-22T11:45:47.213Z,25.80
2019-04-22T11:48:17.610Z,26.10
2019-04-22T11:50:48.123Z,25.90
2019-04-22T11:53:18.673Z,26.10
2019-04-22T11:55:49.005Z,26.70
2019-04-22T11:58:18.953Z,27.40
2019-04-22T12:00:49.375Z,27.40
2019-04-22T12:03:20.865Z,27.00
2019-04-22T12:05:52.082Z,27.30
2019-04-22T12:08:22.772Z,28.10
2019-04-22T12:10:57.090Z,28.50
2019-04-22T12:13:24.060Z,28.30
2019-04-22T12:15:53.759Z,28.30
2019-04-22T12:18:22.998Z,28.60
2019-04-22T12:20:53.092Z,29.70
2019-04-22T12:23:23.125Z,30.00
2019-04-22T12:26:01.297Z,30.40
2019-04-22T12:28:23.493Z,30.10
2019-04-22T12:30:55.246Z,30.00
2019-04-22T12:33:25.312Z,30.00
2019-04-22T12:35:54.793Z,30.30
2019-04-22T12:38:24.295Z,29.90
2019-04-22T12:40:59.090Z,29.90
2019-04-22T12:43:26.438Z,29.80
2019-04-22T12:45:56.300Z,29.90
2019-04-22T12:48:27.331Z,29.50
2019-04-22T12:50:58.534Z,30.00
2019-04-22T12:53:28.153Z,29.70
2019-04-22T12:55:59.344Z,30.20
2019-04-22T12:58:29.825Z,30.30
2019-04-22T13:00:59.244Z,30.20
2019-04-22T13:03:28.738Z,30.30
2019-04-22T13:05:59.287Z,30.00
2019-04-22T13:08:29.796Z,29.60
2019-04-22T13:11:05.776Z,30.00
2019-04-22T13:13:31.322Z,30.40
2019-04-22T13:16:02.680Z,30.10
2019-04-22T13:18:41.653Z,29.80
2019-04-22T13:21:04.222Z,29.70
2019-04-22T13:23:34.075Z,30.20
2019-04-22T13:26:03.431Z,30.80
2019-04-22T13:28:34.459Z,30.90
2019-04-22T13:31:03.800Z,30.70
2019-04-22T13:33:34.619Z,30.60
2019-04-22T13:36:04.096Z,30.40
2019-04-22T13:38:35.391Z,30.60
2019-04-22T13:41:16.435Z,30.20
2019-04-22T13:43:36.622Z,30.50
2019-04-22T13:46:06.152Z,30.80
2019-04-22T13:48:59.375Z,30.80
2019-04-22T13:51:40.235Z,31.00
2019-04-22T13:56:33.176Z,31.50
2019-04-22T13:58:53.015Z,31.60
2019-04-22T14:01:14.509Z,31.80
2019-04-22T14:03:58.763Z,31.70
2019-04-22T14:06:29.116Z,31.90
2019-04-22T14:08:59.009Z,31.40
2019-04-22T14:11:38.387Z,31.10
2019-04-22T14:14:00.806Z,31.50
2019-04-22T14:16:31.122Z,31.70
2019-04-22T14:19:02.014Z,31.60
2019-04-22T14:21:32.673Z,31.60
2019-04-22T14:24:02.686Z,32.10
2019-04-22T14:26:44.075Z,32.50
2019-04-22T14:29:04.144Z,32.90
2019-04-22T14:31:33.501Z,33.40
2019-04-22T14:34:05.391Z,33.60
2019-04-22T14:36:35.159Z,34.60
2019-04-22T14:39:10.143Z,35.20
2019-04-22T14:41:55.385Z,35.60
2019-04-22T14:47:11.251Z,36.50
2019-04-22T14:49:37.104Z,36.60
2019-04-22T14:52:10.743Z,36.60
2019-04-22T14:54:33.825Z,36.80
2019-04-22T14:56:46.670Z,37.30
2019-04-22T14:59:16.721Z,37.50
2019-04-22T15:01:47.467Z,37.70
2019-04-22T15:04:17.228Z,37.80
2019-04-22T15:06:48.914Z,37.80
2019-04-22T15:09:17.678Z,37.70
2019-04-22T15:11:58.175Z,37.70
2019-04-22T15:14:19.430Z,37.70
2019-04-22T15:17:11.015Z,37.60
2019-04-22T15:20:03.796Z,37.60
2019-04-22T15:22:34.587Z,37.60
2019-04-22T15:25:04.979Z,38.50
2019-04-22T15:27:35.292Z,38.10
2019-04-22T15:30:05.926Z,38.00
2019-04-22T15:32:35.722Z,38.20
2019-04-22T15:35:07.226Z,37.90
2019-04-22T15:37:37.282Z,37.50
2019-04-22T15:40:06.997Z,37.70
2019-04-22T15:42:40.205Z,37.90
2019-04-22T15:45:08.828Z,37.40
2019-04-22T15:47:39.640Z,37.10
2019-04-22T15:50:10.151Z,37.40
2019-04-22T15:52:46.281Z,37.60
2019-04-22T15:55:10.966Z,36.90
2019-04-22T15:57:41.951Z,36.80
2019-04-22T16:00:25.049Z,37.00
2019-04-22T16:02:43.924Z,36.90
2019-04-22T16:05:14.919Z,37.30
2019-04-22T16:07:45.721Z,37.90
2019-04-22T16:10:15.769Z,38.40
2019-04-22T16:12:56.115Z,38.80
2019-04-22T16:15:16.424Z,39.10
2019-04-22T16:17:46.695Z,39.00
2019-04-22T16:20:17.395Z,39.10
2019-04-22T16:23:03.744Z,39.40
2019-04-22T16:26:05.250Z,39.80
2019-04-22T16:28:35.394Z,40.20
2019-04-22T16:31:04.782Z,40.70
2019-04-22T16:33:36.399Z,40.90
2019-04-22T16:36:07.084Z,41.60
2019-04-22T16:38:37.677Z,42.00
2019-04-22T16:41:08.439Z,42.50
2019-04-22T16:43:38.387Z,43.00
2019-04-22T16:46:07.917Z,43.50
2019-04-22T16:48:39.961Z,43.80
2019-04-22T16:51:09.903Z,44.30
2019-04-22T16:53:39.423Z,44.80
2019-04-22T16:56:08.924Z,45.10
2019-04-22T16:58:38.842Z,45.50
2019-04-22T17:01:20.733Z,45.90
2019-04-22T17:04:08.112Z,46.20
2019-04-22T17:06:39.592Z,46.50
2019-04-22T17:09:10.958Z,46.70
2019-04-22T17:11:40.359Z,47.00
2019-04-22T17:14:11.203Z,47.50
2019-04-22T17:16:42.005Z,47.40
2019-04-22T17:19:11.400Z,47.80
2019-04-22T17:21:41.486Z,47.90
2019-04-22T17:24:11.943Z,48.30
2019-04-22T17:26:42.393Z,48.70
2019-04-22T17:29:12.530Z,49.10
2019-04-22T17:31:48.450Z,49.60
2019-04-22T17:34:13.839Z,50.00
2019-04-22T17:36:44.690Z,50.70
2019-04-22T17:39:30.167Z,51.20
2019-04-22T17:42:03.501Z,51.80
2019-04-22T17:44:58.899Z,52.10
2019-04-22T17:47:23.553Z,52.50
2019-04-22T17:50:08.529Z,52.80
2019-04-22T17:52:31.107Z,53.10
2019-04-22T17:54:56.229Z,53.30
2019-04-22T17:57:34.413Z,53.50
2019-04-22T18:00:00.053Z,54.50
2019-04-22T18:02:32.322Z,54.20
2019-04-22T18:04:53.943Z,54.50
2019-04-22T18:07:38.289Z,54.90
2019-04-22T18:10:27.212Z,55.10
2019-04-22T18:12:42.350Z,55.40
2019-04-22T18:15:16.213Z,55.50
2019-04-22T18:17:52.604Z,55.70
2019-04-22T18:20:16.686Z,56.10
2019-04-22T18:22:39.276Z,56.40
2019-04-22T18:25:13.363Z,56.60
2019-04-22T18:28:02.122Z,56.70
2019-04-22T18:30:17.971Z,57.00
2019-04-22T18:32:50.682Z,57.20
2019-04-22T18:35:20.490Z,57.50
2019-04-22T18:37:53.759Z,57.70
2019-04-22T18:40:24.244Z,57.80
2019-04-22T18:42:58.409Z,58.00
2019-04-22T18:47:51.860Z,57.80
2019-04-22T18:50:37.763Z,57.60
2019-04-22T18:53:30.077Z,57.70
2019-04-22T18:56:13.824Z,57.50
2019-04-22T18:58:35.804Z,57.40
2019-04-22T19:00:52.500Z,57.30
2019-04-22T19:03:26.332Z,57.40
2019-04-22T19:06:24.830Z,57.30
2019-04-22T19:08:48.147Z,57.40
2019-04-22T19:11:26.322Z,57.50
2019-04-22T19:18:56.522Z,57.70
2019-04-22T19:21:17.691Z,58.20
2019-04-22T19:23:52.145Z,57.30
2019-04-22T19:26:32.517Z,57.40
2019-04-22T19:28:54.457Z,57.60
2019-04-22T19:31:25.827Z,57.40
2019-04-22T19:34:01.559Z,57.70
2019-04-22T19:36:26.017Z,57.60
2019-04-22T19:38:52.702Z,58.00
2019-04-22T19:41:30.490Z,58.10
2019-04-22T19:44:05.188Z,58.00
2019-04-22T19:46:28.603Z,58.10
2019-04-22T19:49:05.124Z,58.00
2019-04-22T19:51:36.996Z,58.10
2019-04-22T19:54:01.436Z,58.50
2019-04-22T19:56:26.739Z,58.60
2019-04-22T19:59:03.630Z,58.70
2019-04-22T20:01:54.091Z,59.10
2019-04-22T20:07:13.023Z,59.70
2019-04-22T20:09:50.903Z,60.50
2019-04-22T20:12:18.907Z,60.00
2019-04-22T20:14:46.245Z,60.40
2019-04-22T20:17:18.689Z,60.60
2019-04-22T20:19:55.434Z,60.90
2019-04-22T20:22:17.802Z,61.20
2019-04-22T20:24:43.161Z,61.70
2019-04-22T20:27:28.588Z,61.90
2019-04-22T20:29:58.132Z,63.00
2019-04-22T20:32:26.307Z,62.70
2019-04-22T20:35:02.676Z,63.10
2019-04-22T20:37:35.647Z,63.40
2019-04-22T20:40:00.264Z,63.70
2019-04-22T20:42:43.740Z,64.30
2019-04-22T20:45:05.423Z,64.50
2019-04-22T20:47:29.226Z,64.80
2019-04-22T20:50:09.784Z,65.10
2019-04-22T20:52:44.776Z,65.20
2019-04-22T20:55:03.012Z,65.40
2019-04-22T20:57:40.491Z,65.60
2019-04-22T21:00:06.093Z,66.00
2019-04-22T21:02:32.650Z,66.30
2019-04-22T21:05:02.291Z,66.60
2019-04-22T21:07:38.602Z,67.00
2019-04-22T21:10:11.469Z,67.30
2019-04-22T21:12:39.998Z,67.60
2019-04-22T21:15:26.307Z,67.90
2019-04-22T21:17:53.786Z,68.40
2019-04-22T21:20:31.803Z,68.80
2019-04-22T21:23:02.953Z,69.00
2019-04-22T21:25:23.947Z,69.40
2019-04-22T21:28:05.016Z,69.80
2019-04-22T21:30:32.398Z,69.90
2019-04-22T21:32:59.501Z,70.30
2019-04-22T21:35:55.027Z,70.60
2019-04-22T21:38:11.352Z,71.00
2019-04-22T21:40:36.091Z,71.20
2019-04-22T21:43:16.299Z,71.50
2019-04-22T21:45:35.314Z,71.80
2019-04-22T21:48:20.587Z,72.10
2019-04-22T21:50:48.005Z,72.40
2019-04-22T21:53:18.026Z,72.70
2019-04-22T21:55:58.538Z,73.00
2019-04-22T21:58:18.078Z,73.50
2019-04-22T22:01:16.907Z,73.60
2019-04-22T22:03:44.019Z,73.80
2019-04-22T22:06:08.692Z,74.10
2019-04-22T22:08:46.170Z,74.20
2019-04-22T22:11:14.215Z,74.40
2019-04-22T22:13:51.977Z,74.70
2019-04-22T22:16:17.515Z,74.90
2019-04-22T22:18:57.854Z,75.00
2019-04-22T22:24:01.653Z,75.40
2019-04-22T22:26:18.603Z,75.70
2019-04-22T22:29:02.078Z,76.00
2019-04-22T22:31:34.725Z,76.20
2019-04-22T22:34:04.111Z,76.50
2019-04-22T22:36:23.842Z,76.70
2019-04-22T22:38:55.093Z,77.00
2019-04-22T22:41:10.019Z,77.20
2019-04-22T22:43:43.879Z,77.60
2019-04-22T22:46:22.762Z,77.70
2019-04-22T22:49:04.823Z,77.90
2019-04-22T22:51:43.035Z,78.20
2019-04-22T22:54:03.756Z,78.40
2019-04-22T22:56:42.646Z,78.70
2019-04-22T22:59:03.188Z,78.80
2019-04-22T23:01:43.585Z,79.00
2019-04-22T23:04:09.245Z,79.10
2019-04-22T23:06:44.402Z,79.20
2019-04-22T23:09:10.297Z,79.50
2019-04-22T23:11:56.840Z,79.60
2019-04-22T23:14:17.008Z,79.70
2019-04-22T23:16:35.354Z,79.80
2019-04-22T23:19:04.423Z,80.00
2019-04-22T23:21:41.634Z,80.20
2019-04-22T23:24:38.289Z,80.30
2019-04-22T23:27:03.210Z,80.60
2019-04-22T23:30:04.181Z,80.90
2019-04-22T23:32:35.503Z,81.20
2019-04-22T23:35:22.912Z,81.70
2019-04-22T23:37:50.021Z,81.90
2019-04-22T23:40:29.399Z,82.30
2019-04-22T23:43:00.004Z,82.50
2019-04-22T23:45:34.803Z,83.00
2019-04-22T23:47:50.519Z,83.20
2019-04-22T23:50:31.191Z,83.70
2019-04-22T23:53:04.254Z,84.00
2019-04-22T23:55:39.291Z,84.30
2019-04-22T23:58:09.584Z,84.50
